Time;durP1;ratioP1;P1;durP2;ratioP2;P2;SDS_P1;SDS_P2;PMS_P1;PMS_P2;Temp;Humidity;BMP_temperature;BMP_pressure;BME280_temperature;BME280_humidity;BME280_pressure;Samples;Min_cycle;Max_cycle;Signal;HPM_P1;HPM_P2
2021/03/08 00:01:03;;;;;;;5.90;4.10;;;-3.50;94.70;;;;;;4376681;32;20066;-58
2021/03/08 00:03:29;;;;;;;4.97;3.60;;;-3.40;95.10;;;;;;4358973;32;20058;-58
2021/03/08 00:05:56;;;;;;;5.28;3.65;;;-3.50;94.40;;;;;;4377420;32;20062;-58
2021/03/08 00:08:22;;;;;;;5.07;3.60;;;-3.40;94.50;;;;;;4378141;32;20096;-57
2021/03/08 00:10:48;;;;;;;5.82;4.10;;;-3.40;94.30;;;;;;4390978;32;20066;-58
2021/03/08 00:13:14;;;;;;;5.47;3.83;;;-3.40;94.10;;;;;;4364890;32;20070;-58
2021/03/08 00:15:41;;;;;;;5.80;4.20;;;-3.30;94.00;;;;;;4364895;32;20081;-59
2021/03/08 00:18:07;;;;;;;5.40;3.35;;;-3.30;93.60;;;;;;4389261;32;20079;-59
2021/03/08 00:20:33;;;;;;;5.90;3.80;;;-3.30;93.40;;;;;;4391377;32;20085;-59
2021/03/08 00:22:59;;;;;;;5.72;3.87;;;-3.20;93.20;;;;;;4376900;32;20142;-58
2021/03/08 00:25:31;;;;;;;6.00;4.35;;;-3.20;93.30;;;;;;4391042;32;20067;-59
2021/03/08 00:27:57;;;;;;;5.78;4.03;;;-3.20;93.30;;;;;;4362781;32;20077;-59
2021/03/08 00:30:23;;;;;;;5.72;3.55;;;-3.20;93.10;;;;;;4362157;32;20561;-58
2021/03/08 00:32:50;;;;;;;5.32;3.80;;;-3.10;93.10;;;;;;4344431;32;20073;-58
2021/03/08 00:35:16;;;;;;;8.48;4.57;;;-3.20;93.10;;;;;;4404924;32;20266;-58
2021/03/08 00:37:43;;;;;;;6.35;3.90;;;-3.10;93.10;;;;;;4384776;32;20584;-58
2021/03/08 00:40:12;;;;;;;5.00;3.75;;;-3.10;93.10;;;;;;4372376;32;20518;-58
2021/03/08 00:42:39;;;;;;;6.12;4.12;;;-3.10;93.00;;;;;;4370018;32;20077;-59
2021/03/08 00:45:11;;;;;;;5.40;3.72;;;-3.10;92.90;;;;;;4380903;32;20074;-58
2021/03/08 00:47:37;;;;;;;5.32;3.87;;;-3.10;93.10;;;;;;4388085;32;20077;-59
2021/03/08 00:50:10;;;;;;;5.87;4.18;;;-3.10;93.20;;;;;;4389071;32;20070;-58
2021/03/08 00:52:36;;;;;;;5.37;3.58;;;-3.10;93.10;;;;;;4389560;32;20080;-58
2021/03/08 00:55:04;;;;;;;7.30;3.83;;;-3.00;93.10;;;;;;4364419;32;20065;-59
2021/03/08 00:57:30;;;;;;;5.95;3.97;;;-3.10;93.20;;;;;;4366654;32;20078;-59
2021/03/08 00:59:56;;;;;;;5.57;3.70;;;-3.00;93.20;;;;;;4393745;32;20068;-58
2021/03/08 01:02:22;;;;;;;5.68;3.80;;;-2.90;92.70;;;;;;4367078;32;20097;-59
2021/03/08 01:04:49;;;;;;;9.23;4.53;;;-2.80;92.60;;;;;;4393675;32;20073;-58
2021/03/08 01:07:15;;;;;;;5.85;3.75;;;-2.60;94.90;;;;;;4392425;32;20503;-58
2021/03/08 01:09:41;;;;;;;6.95;4.12;;;-2.30;96.50;;;;;;4379638;32;20084;-58
2021/03/08 01:12:08;;;;;;;5.15;3.87;;;-2.30;96.20;;;;;;4379897;32;20066;-58
2021/03/08 01:14:35;;;;;;;6.20;4.10;;;-2.30;96.10;;;;;;4367244;32;20100;-58
2021/03/08 01:17:01;;;;;;;5.80;3.97;;;-2.20;96.00;;;;;;4391778;32;20533;-59
2021/03/08 01:19:27;;;;;;;4.93;3.58;;;-2.10;96.20;;;;;;4392047;32;20085;-59
2021/03/08 01:21:53;;;;;;;5.80;4.20;;;-2.10;95.70;;;;;;4354592;32;20082;-58
2021/03/08 01:24:19;;;;;;;6.30;4.12;;;-2.10;95.70;;;;;;4393797;32;20159;-58
2021/03/08 01:26:46;;;;;;;5.57;3.70;;;-2.10;95.50;;;;;;4393307;32;20073;-58
2021/03/08 01:29:12;;;;;;;6.37;4.07;;;-2.10;95.80;;;;;;4393298;32;20152;-58
2021/03/08 01:31:39;;;;;;;4.70;3.70;;;-2.10;95.70;;;;;;4354336;32;20077;-59
2021/03/08 01:34:06;;;;;;;6.78;3.83;;;-2.10;96.10;;;;;;4364084;32;20529;-59
2021/03/08 01:36:32;;;;;;;5.05;4.05;;;-2.20;95.60;;;;;;4369484;32;20234;-59
2021/03/08 01:38:58;;;;;;;5.28;3.75;;;-2.20;95.50;;;;;;4407171;32;20080;-58
2021/03/08 01:41:24;;;;;;;5.45;3.75;;;-2.20;95.40;;;;;;4406923;32;20077;-59
2021/03/08 01:43:51;;;;;;;5.43;4.05;;;-2.20;95.50;;;;;;4381407;32;20072;-58
2021/03/08 01:46:17;;;;;;;5.15;3.58;;;-2.20;95.60;;;;;;4394208;32;20062;-58
2021/03/08 01:48:44;;;;;;;5.43;3.90;;;-2.20;95.20;;;;;;4371070;32;20104;-59
2021/03/08 01:51:10;;;;;;;5.78;3.60;;;-2.20;95.50;;;;;;4391656;32;20484;-58
2021/03/08 01:53:36;;;;;;;5.95;3.70;;;-2.20;95.30;;;;;;4379524;32;20058;-58
2021/03/08 01:56:04;;;;;;;5.43;3.83;;;-2.20;95.40;;;;;;4379590;32;20089;-57
2021/03/08 01:58:30;;;;;;;6.55;4.15;;;-2.10;95.30;;;;;;4379074;32;20065;-58
2021/03/08 02:00:56;;;;;;;7.07;3.90;;;-2.10;95.20;;;;;;4366259;32;20070;-59
2021/03/08 02:03:24;;;;;;;5.22;3.58;;;-2.10;95.10;;;;;;4353391;32;20077;-59
2021/03/08 02:05:50;;;;;;;5.55;4.18;;;-2.10;95.00;;;;;;4366444;32;20062;-58
2021/03/08 02:08:19;;;;;;;5.55;4.07;;;-2.10;95.00;;;;;;4378777;32;20065;-58
2021/03/08 02:10:46;;;;;;;5.32;3.92;;;-2.10;94.90;;;;;;4391254;32;20162;-59
2021/03/08 02:13:34;;;;;;;6.37;4.20;;;-2.00;95.10;;;;;;4341831;32;20578;-58
2021/03/08 02:16:26;;;;;;;6.65;4.30;;;-2.00;95.20;;;;;;4391119;32;20173;-58
2021/03/08 02:19:03;;;;;;;5.18;3.95;;;-2.00;95.40;;;;;;4377456;32;20070;-59
2021/03/08 02:22:06;;;;;;;5.97;4.35;;;-1.90;94.90;;;;;;4376181;32;20074;-59
2021/03/08 02:24:44;;;;;;;6.15;4.00;;;-1.90;94.80;;;;;;4376838;32;20073;-59
2021/03/08 02:28:08;;;;;;;6.28;4.40;;;-1.80;94.90;;;;;;4367107;32;20155;-58
2021/03/08 02:30:51;;;;;;;6.35;4.70;;;-1.70;95.00;;;;;;4366715;32;20073;-57
2021/03/08 02:33:27;;;;;;;5.85;4.15;;;-1.70;94.90;;;;;;4375999;32;20513;-58
2021/03/08 02:35:56;;;;;;;6.78;4.60;;;-1.70;94.90;;;;;;4370468;32;20077;-58
2021/03/08 02:38:27;;;;;;;7.20;4.80;;;-1.60;94.90;;;;;;4393514;32;20451;-58
2021/03/08 02:41:16;;;;;;;6.10;4.60;;;-1.60;94.70;;;;;;4369395;32;20069;-59
2021/03/08 02:43:43;;;;;;;6.15;4.50;;;-1.40;94.80;;;;;;4383149;32;20177;-58
2021/03/08 02:46:17;;;;;;;6.55;4.90;;;-1.40;94.80;;;;;;4368785;32;20083;-58
2021/03/08 02:48:44;;;;;;;5.85;4.50;;;-1.40;94.90;;;;;;4369731;32;20080;-56
2021/03/08 02:51:10;;;;;;;6.20;4.40;;;-1.30;94.70;;;;;;4365755;32;20074;-58
2021/03/08 02:53:39;;;;;;;6.57;4.28;;;-1.30;94.50;;;;;;4366345;32;20090;-58
2021/03/08 02:56:14;;;;;;;8.32;4.97;;;-1.30;94.60;;;;;;4366041;32;20069;-58
2021/03/08 02:58:41;;;;;;;6.55;5.03;;;-1.40;94.60;;;;;;4353518;32;20074;-58
2021/03/08 03:01:08;;;;;;;8.43;5.43;;;-1.40;94.70;;;;;;4341068;32;20086;-57
2021/03/08 03:03:37;;;;;;;8.15;4.87;;;-1.40;94.50;;;;;;4362392;32;20149;-59
2021/03/08 03:06:04;;;;;;;7.22;4.55;;;-1.30;94.40;;;;;;4375527;32;20154;-58
2021/03/08 03:08:30;;;;;;;6.70;4.62;;;-1.20;94.10;;;;;;4338616;32;20448;-57
2021/03/08 03:10:57;;;;;;;6.37;5.15;;;-1.20;94.10;;;;;;4328177;32;20158;-58
2021/03/08 03:13:24;;;;;;;7.10;5.20;;;-1.20;94.10;;;;;;4375816;32;20074;-57
2021/03/08 03:15:50;;;;;;;6.15;4.82;;;-1.20;94.50;;;;;;4368748;32;20142;-59
2021/03/08 03:18:16;;;;;;;7.40;5.30;;;-1.30;94.90;;;;;;4391000;32;20077;-57
2021/03/08 03:20:44;;;;;;;5.78;5.05;;;-1.40;95.20;;;;;;4361683;32;20074;-58
2021/03/08 03:23:10;;;;;;;7.12;5.10;;;-1.50;95.50;;;;;;4384831;32;20125;-59
2021/03/08 03:25:36;;;;;;;7.90;5.30;;;-1.50;96.40;;;;;;4384444;32;20067;-59
2021/03/08 03:28:03;;;;;;;7.12;5.28;;;-1.60;96.00;;;;;;4388665;32;20066;-59
2021/03/08 03:30:29;;;;;;;7.62;4.85;;;-1.60;96.40;;;;;;4360060;32;20072;-57
2021/03/08 03:32:56;;;;;;;6.90;4.80;;;-1.60;96.20;;;;;;4367621;32;20061;-58
2021/03/08 03:35:23;;;;;;;7.68;4.90;;;-1.60;96.10;;;;;;4389561;32;20065;-58
2021/03/08 03:37:49;;;;;;;8.63;5.50;;;-1.60;96.10;;;;;;4378326;32;20121;-59
2021/03/08 03:40:17;;;;;;;7.30;5.32;;;-1.50;95.60;;;;;;4391098;32;20089;-58
2021/03/08 03:42:46;;;;;;;7.30;5.12;;;-1.50;95.70;;;;;;4386103;32;20065;-58
2021/03/08 03:45:13;;;;;;;6.62;5.28;;;-1.60;95.90;;;;;;4407131;32;20148;-57
2021/03/08 03:47:39;;;;;;;7.53;5.18;;;-1.50;95.30;;;;;;4381649;32;20189;-58
2021/03/08 03:50:11;;;;;;;7.35;5.12;;;-1.50;95.40;;;;;;4388476;32;20069;-58
2021/03/08 03:52:37;;;;;;;7.70;5.28;;;-1.40;94.90;;;;;;4383405;32;20081;-58
2021/03/08 03:55:06;;;;;;;7.47;4.80;;;-1.50;95.10;;;;;;4394132;32;20059;-58
2021/03/08 03:57:46;;;;;;;6.57;5.30;;;-1.40;95.10;;;;;;4356281;32;20074;-59
2021/03/08 04:00:14;;;;;;;6.12;4.70;;;-1.40;95.00;;;;;;4360044;32;20140;-59
2021/03/08 04:02:47;;;;;;;5.82;4.65;;;-1.20;94.50;;;;;;4362810;32;20066;-58
2021/03/08 04:05:21;;;;;;;7.80;4.80;;;-1.20;94.30;;;;;;4363549;32;20144;-58
2021/03/08 04:07:47;;;;;;;7.07;5.07;;;-1.20;94.70;;;;;;4361973;32;20088;-60
2021/03/08 04:10:13;;;;;;;7.43;4.57;;;-1.10;94.80;;;;;;4361217;32;20069;-58
2021/03/08 04:12:43;;;;;;;6.53;4.97;;;-1.00;94.20;;;;;;4385966;32;20093;-59
2021/03/08 04:15:10;;;;;;;6.55;4.93;;;-1.00;94.60;;;;;;4379700;32;20147;-59
2021/03/08 04:17:40;;;;;;;6.65;4.60;;;-0.80;94.70;;;;;;4375344;32;20062;-58
2021/03/08 04:20:18;;;;;;;6.60;4.30;;;-0.70;93.60;;;;;;4353996;32;20058;-58
2021/03/08 04:22:51;;;;;;;6.55;5.20;;;-0.70;93.50;;;;;;4354786;32;20522;-58
2021/03/08 04:25:18;;;;;;;4.18;3.65;;;-0.60;92.70;;;;;;4354185;32;20445;-59
2021/03/08 04:27:46;;;;;;;5.65;4.40;;;-0.50;93.30;;;;;;4363451;32;20185;-58
2021/03/08 04:30:13;;;;;;;6.40;4.62;;;-0.20;92.60;;;;;;4350243;32;20460;-59
2021/03/08 04:32:40;;;;;;;5.75;3.87;;;-0.20;92.20;;;;;;4357411;32;20073;-58
2021/03/08 04:35:07;;;;;;;5.05;3.62;;;-0.10;92.20;;;;;;4395200;32;20583;-58
2021/03/08 04:37:34;;;;;;;5.22;3.60;;;0.00;91.90;;;;;;4382952;32;20508;-58
2021/03/08 04:40:02;;;;;;;5.72;3.80;;;0.00;91.70;;;;;;4383014;32;20062;-58
2021/03/08 04:42:28;;;;;;;4.43;3.53;;;-0.50;90.60;;;;;;4383153;32;20163;-58
2021/03/08 04:44:55;;;;;;;8.45;6.30;;;-0.70;91.20;;;;;;4382519;32;20658;-58
2021/03/08 04:47:22;;;;;;;5.97;3.90;;;-0.90;91.00;;;;;;4380158;32;20121;-59
2021/03/08 04:49:49;;;;;;;6.57;4.07;;;-1.00;91.40;;;;;;4367290;32;20149;-58
2021/03/08 04:52:16;;;;;;;6.55;3.90;;;-1.00;91.40;;;;;;4367312;32;20069;-58
2021/03/08 04:54:44;;;;;;;5.97;3.75;;;-1.10;91.70;;;;;;4368076;32;20077;-58
2021/03/08 04:57:11;;;;;;;4.68;3.33;;;-1.10;91.30;;;;;;4367589;32;20501;-58
2021/03/08 04:59:38;;;;;;;4.50;2.80;;;-1.00;90.20;;;;;;4392480;32;20088;-58
2021/03/08 05:02:04;;;;;;;4.47;3.20;;;-1.10;89.70;;;;;;4392865;32;20080;-60
2021/03/08 05:04:30;;;;;;;5.35;3.30;;;-1.10;90.50;;;;;;4355295;32;20092;-58
2021/03/08 05:06:57;;;;;;;5.93;3.53;;;-1.10;90.40;;;;;;4367239;32;20096;-59
2021/03/08 05:09:23;;;;;;;4.40;3.28;;;-1.00;90.70;;;;;;4366762;32;20074;-57
2021/03/08 05:11:49;;;;;;;4.47;2.97;;;-1.10;88.70;;;;;;4381809;32;20068;-58
2021/03/08 05:14:20;;;;;;;5.72;3.20;;;-1.10;90.00;;;;;;4362474;32;20070;-59
2021/03/08 05:16:47;;;;;;;4.12;2.78;;;-1.00;89.00;;;;;;4387743;32;20161;-58
2021/03/08 05:19:13;;;;;;;5.37;3.37;;;-0.70;87.50;;;;;;4388513;32;20503;-59
2021/03/08 05:21:40;;;;;;;4.95;2.83;;;1.10;81.80;;;;;;4343887;32;20081;-58
2021/03/08 05:24:07;;;;;;;3.20;2.75;;;2.20;74.30;;;;;;4384703;32;20211;-62
2021/03/08 05:26:34;;;;;;;3.15;2.55;;;2.80;70.50;;;;;;4382996;32;20440;-58
2021/03/08 05:29:00;;;;;;;4.12;2.80;;;3.10;65.00;;;;;;4361705;32;20089;-61
2021/03/08 05:31:32;;;;;;;3.55;2.33;;;3.80;66.80;;;;;;4362547;32;20076;-58
2021/03/08 05:34:02;;;;;;;3.30;1.80;;;3.70;60.90;;;;;;4363759;32;20089;-58
2021/03/08 05:36:28;;;;;;;1.80;1.20;;;3.40;60.90;;;;;;4406825;32;20073;-59
2021/03/08 05:38:55;;;;;;;1.27;1.17;;;3.10;59.80;;;;;;4394314;32;20547;-58
2021/03/08 05:41:32;;;;;;;2.95;1.40;;;2.60;59.30;;;;;;4369751;32;20145;-58
2021/03/08 05:44:08;;;;;;;1.70;1.12;;;2.60;59.80;;;;;;4394868;32;20107;-58
2021/03/08 05:46:53;;;;;;;2.28;1.37;;;2.50;59.50;;;;;;4382244;32;20077;-58
2021/03/08 05:50:17;;;;;;;2.53;1.37;;;2.80;58.00;;;;;;4393031;32;20081;-57
2021/03/08 05:53:21;;;;;;;3.55;1.70;;;2.70;58.40;;;;;;4379016;32;20074;-59
2021/03/08 05:56:31;;;;;;;1.83;1.00;;;3.50;56.00;;;;;;4383922;32;20463;-59
2021/03/08 05:59:43;;;;;;;0.70;0.57;;;2.90;55.50;;;;;;4377711;32;20550;-59
2021/03/08 06:02:54;;;;;;;1.37;1.12;;;3.70;56.60;;;;;;4364115;32;20075;-60
2021/03/08 06:05:45;;;;;;;1.25;0.77;;;3.90;53.70;;;;;;4386750;32;20169;-58
2021/03/08 06:08:38;;;;;;;1.20;0.95;;;2.70;54.50;;;;;;4367405;32;20529;-57
2021/03/08 06:11:08;;;;;;;1.45;1.10;;;2.50;56.60;;;;;;4378893;32;20093;-59
2021/03/08 06:13:43;;;;;;;1.35;0.95;;;2.30;57.80;;;;;;4378774;32;20166;-58
2021/03/08 06:16:15;;;;;;;1.85;1.20;;;1.50;61.90;;;;;;4379929;32;20063;-58
2021/03/08 06:18:45;;;;;;;1.48;1.10;;;0.90;64.10;;;;;;4366232;32;20158;-58
2021/03/08 06:21:15;;;;;;;1.10;0.88;;;0.60;66.80;;;;;;4378786;32;20071;-58
2021/03/08 06:23:43;;;;;;;1.65;1.23;;;0.40;66.60;;;;;;4354597;32;20077;-57
2021/03/08 06:26:13;;;;;;;2.60;1.10;;;0.50;66.40;;;;;;4392183;32;20066;-59
2021/03/08 06:28:40;;;;;;;2.00;0.73;;;0.20;65.30;;;;;;4351799;32;20073;-59
2021/03/08 06:31:07;;;;;;;1.27;0.95;;;0.10;63.30;;;;;;4351304;32;20074;-57
2021/03/08 06:33:35;;;;;;;1.62;0.80;;;0.00;63.30;;;;;;4361273;32;20077;-61
2021/03/08 06:36:02;;;;;;;2.55;1.10;;;0.10;62.50;;;;;;4392299;32;20092;-58
2021/03/08 06:38:28;;;;;;;2.20;1.17;;;0.30;62.20;;;;;;4411375;32;20443;-58
2021/03/08 06:40:55;;;;;;;2.35;0.90;;;0.30;60.00;;;;;;4381498;32;20070;-58
2021/03/08 06:43:21;;;;;;;1.12;0.88;;;0.30;60.30;;;;;;4381202;32;20447;-59
2021/03/08 06:45:48;;;;;;;1.83;1.10;;;0.70;59.70;;;;;;4368380;32;20500;-59
2021/03/08 06:48:14;;;;;;;2.45;1.23;;;0.70;60.40;;;;;;4398301;32;20065;-59
2021/03/08 06:50:40;;;;;;;1.83;1.20;;;0.60;59.60;;;;;;4393840;32;20105;-58
2021/03/08 06:53:06;;;;;;;2.65;1.00;;;0.60;58.90;;;;;;4393641;32;20580;-58
2021/03/08 06:55:34;;;;;;;1.10;1.00;;;0.80;59.60;;;;;;4377229;32;20164;-59
2021/03/08 06:58:17;;;;;;;1.98;0.88;;;0.80;57.60;;;;;;4375780;32;20448;-59
2021/03/08 07:00:44;;;;;;;1.37;0.82;;;0.70;58.90;;;;;;4351422;32;20073;-60
2021/03/08 07:03:33;;;;;;;2.70;1.52;;;0.60;58.40;;;;;;4370440;32;20172;-58
2021/03/08 07:06:17;;;;;;;1.77;1.10;;;0.80;59.70;;;;;;4365684;32;20066;-59
2021/03/08 07:08:46;;;;;;;2.60;1.05;;;0.70;60.10;;;;;;4379039;32;20058;-59
2021/03/08 07:11:22;;;;;;;1.58;1.00;;;0.80;58.30;;;;;;4370532;32;20076;-58
2021/03/08 07:13:49;;;;;;;1.65;0.80;;;0.90;59.00;;;;;;4371070;32;20062;-59
2021/03/08 07:16:16;;;;;;;1.17;0.90;;;1.00;59.70;;;;;;4377970;32;20085;-58
2021/03/08 07:18:42;;;;;;;1.73;1.25;;;1.20;58.60;;;;;;4366054;32;20078;-59
2021/03/08 07:21:21;;;;;;;1.62;1.00;;;1.00;59.10;;;;;;4390718;32;20145;-59
2021/03/08 07:23:52;;;;;;;1.52;1.00;;;1.20;57.80;;;;;;4378720;32;20074;-59
2021/03/08 07:26:20;;;;;;;1.73;1.17;;;1.00;56.80;;;;;;4370583;32;20472;-59
2021/03/08 07:29:13;;;;;;;1.70;1.00;;;1.10;57.10;;;;;;4368100;32;20070;-59
2021/03/08 07:31:43;;;;;;;2.22;1.30;;;1.20;57.00;;;;;;4366728;32;20066;-58
2021/03/08 07:34:09;;;;;;;1.45;1.02;;;1.30;56.40;;;;;;4388057;32;20077;-60
2021/03/08 07:36:41;;;;;;;2.03;1.00;;;1.40;56.90;;;;;;4392950;32;20094;-60
2021/03/08 07:39:17;;;;;;;1.75;1.00;;;1.30;56.10;;;;;;4393284;32;20073;-59
2021/03/08 07:42:10;;;;;;;1.70;1.10;;;1.50;55.60;;;;;;4380306;32;20066;-57
2021/03/08 07:44:36;;;;;;;1.80;1.08;;;1.60;54.90;;;;;;4389727;32;20077;-59
2021/03/08 07:47:20;;;;;;;2.10;1.23;;;2.10;54.90;;;;;;4379607;32;20077;-58
2021/03/08 07:49:46;;;;;;;2.83;1.30;;;2.70;53.20;;;;;;4377423;32;20078;-58
2021/03/08 07:52:17;;;;;;;1.40;1.02;;;3.00;51.50;;;;;;4359094;32;20147;-59
2021/03/08 07:55:01;;;;;;;0.77;0.77;;;3.20;49.90;;;;;;4381645;32;20583;-59
2021/03/08 07:57:29;;;;;;;2.20;1.23;;;3.20;50.00;;;;;;4341135;32;20070;-58
2021/03/08 07:59:55;;;;;;;2.00;1.15;;;3.20;51.10;;;;;;4390251;32;20074;-59
2021/03/08 08:02:22;;;;;;;3.95;1.20;;;3.00;51.70;;;;;;4376831;32;20124;-58
2021/03/08 08:04:48;;;;;;;1.98;1.00;;;2.90;51.20;;;;;;4377254;32;20212;-59
2021/03/08 08:07:15;;;;;;;2.67;1.30;;;3.10;53.20;;;;;;4352770;32;20238;-58
2021/03/08 08:09:43;;;;;;;2.40;1.27;;;3.20;50.80;;;;;;4364663;32;20080;-59
2021/03/08 08:12:18;;;;;;;3.25;1.12;;;2.70;51.30;;;;;;4377839;32;20069;-58
2021/03/08 08:14:44;;;;;;;2.83;1.50;;;2.40;53.80;;;;;;4377322;32;20081;-58
2021/03/08 08:17:15;;;;;;;2.65;1.35;;;2.60;55.00;;;;;;4339836;32;20084;-57
2021/03/08 08:19:45;;;;;;;1.10;0.98;;;2.60;53.00;;;;;;4365856;32;20077;-57
2021/03/08 08:22:16;;;;;;;1.83;1.50;;;2.80;54.30;;;;;;4390279;32;20101;-57
2021/03/08 08:24:42;;;;;;;1.55;1.30;;;2.80;54.30;;;;;;4378005;32;20066;-57
2021/03/08 08:27:10;;;;;;;2.42;1.20;;;3.10;54.60;;;;;;4364963;32;20235;-57
2021/03/08 08:29:36;;;;;;;1.50;0.98;;;2.90;53.40;;;;;;4377195;32;20085;-58
2021/03/08 08:32:07;;;;;;;3.25;1.60;;;1.90;57.80;;;;;;4389811;32;20172;-58
2021/03/08 08:34:40;;;;;;;1.48;1.10;;;2.10;59.80;;;;;;4389586;32;20156;-58
2021/03/08 08:37:24;;;;;;;1.92;1.25;;;2.00;57.60;;;;;;4392877;32;20074;-57
2021/03/08 08:39:53;;;;;;;1.23;0.75;;;2.40;58.40;;;;;;4393134;32;20058;-58
2021/03/08 08:42:21;;;;;;;1.87;1.10;;;2.20;58.70;;;;;;4406658;32;20058;-58
2021/03/08 08:44:49;;;;;;;1.48;0.75;;;1.90;61.00;;;;;;4393095;32;20132;-60
2021/03/08 08:47:34;;;;;;;2.15;1.48;;;2.30;59.40;;;;;;4403663;32;20432;-58
2021/03/08 08:50:06;;;;;;;1.08;0.80;;;2.40;58.60;;;;;;4386991;32;20085;-58
2021/03/08 08:52:56;;;;;;;4.95;1.10;;;2.20;58.30;;;;;;4375293;32;20145;-58
2021/03/08 08:55:34;;;;;;;3.87;1.08;;;1.90;59.30;;;;;;4353077;32;20081;-59
2021/03/08 08:58:38;;;;;;;2.47;0.90;;;1.90;59.50;;;;;;4377479;32;20166;-58
2021/03/08 09:01:13;;;;;;;2.40;1.02;;;1.80;61.30;;;;;;4377759;32;20081;-57
2021/03/08 09:04:00;;;;;;;1.50;0.93;;;1.90;59.60;;;;;;4379364;32;20062;-58
2021/03/08 09:06:45;;;;;;;2.53;1.05;;;1.80;59.70;;;;;;4374816;32;20077;-58
2021/03/08 09:09:24;;;;;;;1.17;0.85;;;2.00;60.60;;;;;;4375910;32;20445;-60
2021/03/08 09:11:51;;;;;;;1.62;1.00;;;2.00;59.90;;;;;;4374519;32;20164;-58
2021/03/08 09:14:47;;;;;;;1.00;0.80;;;2.10;59.10;;;;;;4361811;32;20174;-59
2021/03/08 09:17:19;;;;;;;1.40;0.85;;;2.00;59.40;;;;;;4375807;32;20167;-58
2021/03/08 09:19:57;;;;;;;1.48;1.20;;;2.40;58.60;;;;;;4367725;32;20508;-59
2021/03/08 09:22:26;;;;;;;2.08;0.75;;;2.40;60.20;;;;;;4370328;32;20200;-60
2021/03/08 09:25:02;;;;;;;3.15;1.00;;;2.30;58.10;;;;;;4380066;32;20082;-58
2021/03/08 09:27:36;;;;;;;1.50;0.90;;;2.60;57.40;;;;;;4392519;32;20074;-57
2021/03/08 09:30:13;;;;;;;1.77;0.82;;;2.50;57.30;;;;;;4392706;32;20590;-57
2021/03/08 09:33:01;;;;;;;1.15;0.90;;;2.30;57.80;;;;;;4369743;32;20523;-58
2021/03/08 09:35:48;;;;;;;0.90;0.82;;;2.30;58.20;;;;;;4407391;32;20451;-58
2021/03/08 09:38:25;;;;;;;1.37;0.98;;;2.30;58.70;;;;;;4382617;32;20154;-58
2021/03/08 09:40:58;;;;;;;3.17;1.05;;;2.50;60.30;;;;;;4387276;32;20066;-58
2021/03/08 09:43:36;;;;;;;4.03;1.10;;;2.60;60.20;;;;;;4386294;32;20062;-59
2021/03/08 09:46:14;;;;;;;2.17;1.23;;;2.90;59.80;;;;;;4384695;32;20508;-59
2021/03/08 09:48:42;;;;;;;1.30;1.15;;;2.60;60.60;;;;;;4378285;32;20591;-58
2021/03/08 09:51:17;;;;;;;1.25;1.00;;;2.80;61.20;;;;;;4388559;32;20066;-58
2021/03/08 09:53:48;;;;;;;3.22;0.90;;;2.70;59.60;;;;;;4380223;32;20085;-58
2021/03/08 09:56:22;;;;;;;1.73;1.08;;;2.70;60.50;;;;;;4367526;32;20074;-59
2021/03/08 09:59:03;;;;;;;1.58;1.08;;;2.40;60.50;;;;;;4368236;32;20070;-58
2021/03/08 10:01:29;;;;;;;1.02;0.80;;;2.70;61.80;;;;;;4368884;32;20066;-58
2021/03/08 10:03:56;;;;;;;1.12;1.00;;;2.50;60.50;;;;;;4393018;32;20076;-59
2021/03/08 10:06:35;;;;;;;1.52;0.75;;;2.50;59.80;;;;;;4391595;32;20193;-59
2021/03/08 10:09:22;;;;;;;2.10;0.88;;;2.50;59.30;;;;;;4368473;32;20084;-58
2021/03/08 10:11:48;;;;;;;2.83;1.15;;;2.60;61.60;;;;;;4392592;32;20492;-59
2021/03/08 10:14:28;;;;;;;1.65;1.23;;;2.60;61.30;;;;;;4391246;32;20082;-59
2021/03/08 10:17:05;;;;;;;2.58;1.02;;;2.30;62.60;;;;;;4366704;32;20094;-58
2021/03/08 10:19:33;;;;;;;3.33;1.20;;;2.30;62.90;;;;;;4354620;32;20065;-58
2021/03/08 10:21:59;;;;;;;3.15;1.20;;;2.40;62.70;;;;;;4391520;32;20069;-58
2021/03/08 10:24:40;;;;;;;1.35;0.88;;;2.20;63.30;;;;;;4392580;32;20061;-58
2021/03/08 10:27:10;;;;;;;1.65;0.75;;;2.30;63.90;;;;;;4378799;32;20069;-58
2021/03/08 10:29:38;;;;;;;1.60;1.05;;;2.60;61.70;;;;;;4391101;32;20069;-59
2021/03/08 10:32:07;;;;;;;5.20;2.00;;;2.70;61.90;;;;;;4366059;32;20077;-59
2021/03/08 10:34:33;;;;;;;1.83;1.00;;;2.70;61.10;;;;;;4379295;32;20093;-59
2021/03/08 10:36:59;;;;;;;1.40;1.00;;;2.90;61.20;;;;;;4393789;32;20062;-59
2021/03/08 10:39:26;;;;;;;1.48;0.95;;;2.60;63.10;;;;;;4368543;32;20069;-59
2021/03/08 10:41:52;;;;;;;0.95;0.70;;;2.40;62.00;;;;;;4381457;32;20065;-59
2021/03/08 10:44:19;;;;;;;2.33;0.80;;;2.10;59.60;;;;;;4381363;32;20084;-59
2021/03/08 10:46:46;;;;;;;0.80;0.77;;;2.30;60.10;;;;;;4380999;32;20080;-58
2021/03/08 10:49:12;;;;;;;1.23;0.80;;;2.30;57.00;;;;;;4348532;32;20081;-58
2021/03/08 10:51:40;;;;;;;1.58;0.82;;;2.30;55.10;;;;;;4363114;32;20509;-58
2021/03/08 10:54:14;;;;;;;2.10;1.30;;;2.20;52.80;;;;;;4363152;32;20655;-58
2021/03/08 10:56:42;;;;;;;2.15;1.00;;;1.90;52.30;;;;;;4351740;32;20078;-59
2021/03/08 10:59:30;;;;;;;1.42;0.98;;;2.40;50.10;;;;;;4376881;32;20159;-59
2021/03/08 11:02:09;;;;;;;2.87;1.37;;;2.80;47.60;;;;;;4365108;32;20072;-59
2021/03/08 11:04:36;;;;;;;1.92;0.90;;;2.90;47.80;;;;;;4363772;32;20097;-58
2021/03/08 11:07:03;;;;;;;1.02;0.90;;;3.40;45.60;;;;;;4376333;32;20489;-59
2021/03/08 11:09:31;;;;;;;3.00;1.30;;;3.00;44.10;;;;;;4363665;32;20074;-58
2021/03/08 11:11:58;;;;;;;1.27;0.95;;;3.00;43.60;;;;;;4363422;32;20085;-59
2021/03/08 11:14:24;;;;;;;2.03;0.70;;;3.00;43.90;;;;;;4375537;32;20082;-58
2021/03/08 11:16:53;;;;;;;2.20;1.00;;;3.20;47.00;;;;;;4363166;32;20483;-59
2021/03/08 11:19:24;;;;;;;1.55;0.80;;;3.50;43.60;;;;;;4376767;32;20112;-62
2021/03/08 11:22:02;;;;;;;1.25;0.80;;;3.60;42.80;;;;;;4378997;32;20077;-59
2021/03/08 11:24:32;;;;;;;1.17;0.40;;;3.40;43.80;;;;;;4379219;32;20566;-59
2021/03/08 11:27:12;;;;;;;1.35;0.82;;;2.60;46.30;;;;;;4380244;32;20424;-59
2021/03/08 11:29:40;;;;;;;0.60;0.20;;;2.50;47.00;;;;;;4381887;32;20066;-58
2021/03/08 11:32:08;;;;;;;1.62;0.90;;;2.30;47.50;;;;;;4384221;32;20058;-59
2021/03/08 11:34:42;;;;;;;1.42;0.82;;;2.00;48.70;;;;;;4404304;32;20062;-59
2021/03/08 11:37:10;;;;;;;1.95;1.15;;;1.90;49.80;;;;;;4394204;32;20145;-59
2021/03/08 11:39:51;;;;;;;1.30;0.80;;;1.80;50.70;;;;;;4405346;32;20084;-59
2021/03/08 11:42:19;;;;;;;2.58;1.65;;;1.80;51.40;;;;;;4381896;32;20090;-59
2021/03/08 11:44:46;;;;;;;2.83;1.00;;;2.00;51.60;;;;;;4405492;32;20085;-57
2021/03/08 11:47:12;;;;;;;1.20;0.82;;;1.80;52.10;;;;;;4391870;32;20583;-58
2021/03/08 11:49:39;;;;;;;1.00;0.70;;;1.60;53.90;;;;;;4365570;32;20088;-58
2021/03/08 11:52:06;;;;;;;1.60;0.90;;;1.90;52.20;;;;;;4378530;32;20077;-59
2021/03/08 11:54:32;;;;;;;1.50;0.95;;;2.10;52.40;;;;;;4365533;32;20078;-58
2021/03/08 11:57:04;;;;;;;1.77;1.10;;;2.50;50.00;;;;;;4365875;32;20081;-58
2021/03/08 11:59:31;;;;;;;2.35;0.90;;;2.30;51.60;;;;;;4354492;32;20062;-58
2021/03/08 12:01:57;;;;;;;2.42;1.10;;;2.50;50.30;;;;;;4392034;32;20070;-58
2021/03/08 12:04:23;;;;;;;1.83;1.17;;;2.90;49.80;;;;;;4365568;32;20476;-59
2021/03/08 12:06:50;;;;;;;1.77;0.98;;;3.20;48.20;;;;;;4365297;32;20077;-58
2021/03/08 12:09:16;;;;;;;1.83;1.10;;;3.30;46.90;;;;;;4377368;32;20137;-58
2021/03/08 12:11:42;;;;;;;1.80;0.95;;;2.90;47.50;;;;;;4393601;32;20077;-59
2021/03/08 12:14:09;;;;;;;1.95;0.90;;;2.80;48.20;;;;;;4362629;32;20070;-63
2021/03/08 12:16:35;;;;;;;1.60;0.90;;;2.60;50.10;;;;;;4368215;32;20087;-59
2021/03/08 12:19:01;;;;;;;2.87;0.88;;;3.20;47.30;;;;;;4390659;32;20078;-58
2021/03/08 12:21:29;;;;;;;2.58;1.40;;;2.80;49.10;;;;;;4364917;32;20069;-60
2021/03/08 12:23:56;;;;;;;1.50;0.85;;;2.80;49.70;;;;;;4365376;32;20123;-60
2021/03/08 12:26:23;;;;;;;1.20;0.60;;;3.30;47.20;;;;;;4353074;32;20484;-60
2021/03/08 12:28:49;;;;;;;1.20;0.88;;;3.10;48.00;;;;;;4377412;32;20149;-59
2021/03/08 12:31:16;;;;;;;1.42;0.70;;;3.00;47.50;;;;;;4377265;32;20093;-59
2021/03/08 12:33:43;;;;;;;1.12;0.90;;;2.70;49.50;;;;;;4372560;32;20448;-59
2021/03/08 12:36:09;;;;;;;2.08;0.80;;;2.80;50.40;;;;;;4404854;32;20070;-59
2021/03/08 12:38:35;;;;;;;2.17;1.27;;;3.00;48.90;;;;;;4392416;32;20080;-60
2021/03/08 12:41:02;;;;;;;1.87;0.85;;;2.90;51.70;;;;;;4392826;32;20170;-58
2021/03/08 12:43:29;;;;;;;3.55;1.20;;;2.70;52.70;;;;;;4380327;32;20526;-59
2021/03/08 12:45:55;;;;;;;1.37;1.00;;;2.60;54.50;;;;;;4392330;32;20083;-58
2021/03/08 12:48:22;;;;;;;2.12;1.12;;;2.80;53.10;;;;;;4370556;32;20061;-60
2021/03/08 12:50:48;;;;;;;1.35;0.90;;;3.00;53.70;;;;;;4364906;32;20185;-58
2021/03/08 12:53:15;;;;;;;0.77;0.77;;;2.80;57.90;;;;;;4391389;32;20145;-59
2021/03/08 12:55:41;;;;;;;1.58;1.10;;;2.50;62.20;;;;;;4362357;32;20504;-59
2021/03/08 12:58:08;;;;;;;1.17;0.80;;;2.20;65.00;;;;;;4377865;32;20178;-59
2021/03/08 13:00:35;;;;;;;1.87;1.20;;;2.20;65.60;;;;;;4352820;32;20070;-59
2021/03/08 13:03:01;;;;;;;3.45;1.20;;;2.40;65.70;;;;;;4358784;32;20164;-58
2021/03/08 13:05:28;;;;;;;1.40;0.80;;;2.10;67.00;;;;;;4379870;32;20133;-58
2021/03/08 13:07:54;;;;;;;1.75;0.95;;;2.50;65.80;;;;;;4393179;32;20074;-58
2021/03/08 13:10:20;;;;;;;2.17;1.00;;;2.60;63.30;;;;;;4393891;32;20085;-58
2021/03/08 13:12:47;;;;;;;2.37;1.23;;;2.30;65.30;;;;;;4369978;32;20072;-57